createdAt,value
2018-02-23T00:00:42.836Z,0.40
2018-02-23T00:03:11.134Z,0.30
2018-02-23T00:05:38.653Z,0.40
2018-02-23T00:08:06.254Z,0.40
2018-02-23T00:10:33.817Z,0.30
2018-02-23T00:13:01.332Z,0.40
2018-02-23T00:15:28.863Z,0.40
2018-02-23T00:17:56.377Z,0.40
2018-02-23T00:20:24.668Z,0.30
2018-02-23T00:22:52.244Z,0.30
2018-02-23T00:25:19.959Z,0.30
2018-02-23T00:27:47.561Z,0.30
2018-02-23T00:30:15.116Z,0.30
2018-02-23T00:32:42.679Z,0.30
2018-02-23T00:35:10.359Z,0.20
2018-02-23T00:37:38.195Z,0.30
2018-02-23T00:40:06.496Z,0.10
2018-02-23T00:42:34.149Z,0.10
2018-02-23T00:45:02.073Z,0.20
2018-02-23T00:47:29.898Z,0.10
2018-02-23T00:49:57.457Z,0.10
2018-02-23T00:52:25.168Z,-0.10
2018-02-23T00:54:52.767Z,-0.20
2018-02-23T00:57:20.323Z,-0.20
2018-02-23T00:59:47.894Z,-0.20
2018-02-23T01:02:15.524Z,-0.20
2018-02-23T01:04:43.127Z,-0.20
2018-02-23T01:07:10.664Z,-0.30
2018-02-23T01:09:39.331Z,-0.40
2018-02-23T01:12:06.855Z,-0.40
2018-02-23T01:14:34.391Z,-0.40
2018-02-23T01:17:01.940Z,-0.50
2018-02-23T01:19:29.502Z,-0.50
2018-02-23T01:21:59.464Z,-0.60
2018-02-23T01:24:27.200Z,-0.70
2018-02-23T01:26:54.741Z,-0.70
2018-02-23T01:29:22.331Z,-0.70
2018-02-23T01:31:56.016Z,-0.80
2018-02-23T01:34:23.548Z,-0.80
2018-02-23T01:36:51.873Z,-0.90
2018-02-23T01:39:19.402Z,-0.90
2018-02-23T01:41:46.974Z,-1.00
2018-02-23T01:44:14.651Z,-1.00
2018-02-23T01:46:42.199Z,-1.10
2018-02-23T01:49:09.771Z,-1.20
2018-02-23T01:51:37.827Z,-1.30
2018-02-23T01:54:05.356Z,-1.20
2018-02-23T01:56:32.864Z,-1.30
2018-02-23T01:59:00.736Z,-1.30
2018-02-23T02:01:28.461Z,-1.30
2018-02-23T02:03:56.846Z,-1.30
2018-02-23T02:06:25.130Z,-1.30
2018-02-23T02:08:52.665Z,-1.30
2018-02-23T02:11:21.095Z,-1.30
2018-02-23T02:13:48.905Z,-1.40
2018-02-23T02:16:19.018Z,-1.30
2018-02-23T02:18:46.790Z,-1.30
2018-02-23T02:21:14.394Z,-1.20
2018-02-23T02:23:42.368Z,-1.30
2018-02-23T02:26:09.888Z,-1.20
2018-02-23T02:28:37.485Z,-1.10
2018-02-23T02:31:05.052Z,-1.10
2018-02-23T02:33:32.810Z,-1.10
2018-02-23T02:36:00.589Z,-1.00
2018-02-23T02:38:28.120Z,-1.00
2018-02-23T02:40:56.422Z,-0.90
2018-02-23T02:43:23.971Z,-0.90
2018-02-23T02:45:51.852Z,-0.90
2018-02-23T02:48:19.530Z,-0.80
2018-02-23T02:50:47.151Z,-0.90
2018-02-23T02:53:14.960Z,-0.80
2018-02-23T02:55:42.483Z,-0.80
2018-02-23T02:58:10.011Z,-0.80
2018-02-23T03:00:38.331Z,-0.80
2018-02-23T03:03:05.846Z,-0.80
2018-02-23T03:05:33.391Z,-0.80
2018-02-23T03:08:01.068Z,-0.80
2018-02-23T03:10:28.603Z,-0.80
2018-02-23T03:12:57.173Z,-0.80
2018-02-23T03:15:24.944Z,-0.80
2018-02-23T03:17:52.478Z,-0.80
2018-02-23T03:20:20.042Z,-0.90
2018-02-23T03:22:47.609Z,-0.90
2018-02-23T03:25:15.335Z,-0.90
2018-02-23T03:27:42.990Z,-0.90
2018-02-23T03:30:10.595Z,-0.90
2018-02-23T03:32:38.166Z,-0.90
2018-02-23T03:35:05.730Z,-0.90
2018-02-23T03:37:33.275Z,-0.90
2018-02-23T03:40:00.837Z,-0.90
2018-02-23T03:42:28.359Z,-0.90
2018-02-23T03:44:55.953Z,-0.90
2018-02-23T03:47:23.516Z,-0.90
2018-02-23T03:49:51.077Z,-0.90
2018-02-23T03:52:18.590Z,-0.90
2018-02-23T03:54:46.190Z,-0.90
2018-02-23T03:57:14.491Z,-0.90
2018-02-23T03:59:42.038Z,-0.90
2018-02-23T04:02:09.574Z,-0.90
2018-02-23T04:04:37.856Z,-0.80
2018-02-23T04:07:06.148Z,-0.80
2018-02-23T04:09:33.715Z,-0.90
2018-02-23T04:12:01.275Z,-0.80
2018-02-23T04:14:28.846Z,-0.90
2018-02-23T04:16:56.372Z,-0.80
2018-02-23T04:19:27.511Z,-0.80
2018-02-23T04:21:55.813Z,-0.90
2018-02-23T04:24:23.333Z,-0.90
2018-02-23T04:26:50.939Z,-0.80
2018-02-23T04:29:18.703Z,-0.90
2018-02-23T04:31:46.271Z,-0.80
2018-02-23T04:34:13.788Z,-0.80
2018-02-23T04:36:42.093Z,-0.90
2018-02-23T04:39:09.712Z,-0.90
2018-02-23T04:41:37.325Z,-0.90
2018-02-23T04:44:04.843Z,-1.00
2018-02-23T04:46:32.353Z,-1.00
2018-02-23T04:48:59.867Z,-1.00
2018-02-23T04:51:27.387Z,-1.00
2018-02-23T04:53:54.899Z,-1.10
2018-02-23T04:56:23.215Z,-1.00
2018-02-23T04:58:50.789Z,-1.00
2018-02-23T05:01:18.309Z,-1.00
2018-02-23T05:03:45.837Z,-1.10
2018-02-23T05:06:13.359Z,-1.10
2018-02-23T05:08:40.884Z,-1.10
2018-02-23T05:11:09.155Z,-1.10
2018-02-23T05:13:37.450Z,-1.10
2018-02-23T05:16:04.963Z,-1.10
2018-02-23T05:18:32.502Z,-1.10
2018-02-23T05:21:00.041Z,-1.20
2018-02-23T05:23:27.570Z,-1.20
2018-02-23T05:25:56.186Z,-1.40
2018-02-23T05:28:23.708Z,-1.40
2018-02-23T05:30:51.215Z,-1.40
2018-02-23T05:33:18.744Z,-1.40
2018-02-23T05:35:46.278Z,-1.50
2018-02-23T05:38:13.808Z,-1.60
2018-02-23T05:40:41.366Z,-1.70
2018-02-23T05:43:09.152Z,-1.70
2018-02-23T05:45:36.663Z,-1.70
2018-02-23T05:48:04.198Z,-1.60
2018-02-23T05:50:32.493Z,-1.60
2018-02-23T05:53:00.012Z,-1.70
2018-02-23T05:55:27.628Z,-1.70
2018-02-23T05:57:55.135Z,-1.70
2018-02-23T06:00:22.744Z,-1.80
2018-02-23T06:02:50.299Z,-1.80
2018-02-23T06:05:17.822Z,-1.90
2018-02-23T06:07:45.422Z,-1.90
2018-02-23T06:10:12.944Z,-1.90
2018-02-23T06:12:40.455Z,-1.90
2018-02-23T06:15:08.020Z,-1.90
2018-02-23T06:17:41.123Z,-2.00
2018-02-23T06:20:08.656Z,-2.00
2018-02-23T06:22:36.239Z,-2.00
2018-02-23T06:25:03.799Z,-2.00
2018-02-23T06:27:31.313Z,-2.10
2018-02-23T06:29:59.602Z,-2.10
2018-02-23T06:32:27.884Z,-2.10
2018-02-23T06:34:56.271Z,-2.00
2018-02-23T06:37:23.774Z,-2.10
2018-02-23T06:39:51.395Z,-2.00
2018-02-23T06:42:18.903Z,-2.00
2018-02-23T06:44:46.419Z,-2.00
2018-02-23T06:47:13.932Z,-2.00
2018-02-23T06:49:41.440Z,-1.90
2018-02-23T06:52:08.950Z,-1.90
2018-02-23T06:54:36.469Z,-1.90
2018-02-23T06:57:04.030Z,-1.80
2018-02-23T06:59:31.559Z,-1.70
2018-02-23T07:01:59.943Z,-1.60
2018-02-23T07:04:27.512Z,-1.60
2018-02-23T07:06:55.071Z,-1.50
2018-02-23T07:09:22.633Z,-1.50
2018-02-23T07:11:50.182Z,-1.50
2018-02-23T07:14:18.471Z,-1.50
2018-02-23T07:16:46.028Z,-1.60
2018-02-23T07:19:13.531Z,-1.60
2018-02-23T07:21:41.060Z,-1.60
2018-02-23T07:24:08.611Z,-1.60
2018-02-23T07:26:36.131Z,-1.60
2018-02-23T07:29:03.635Z,-1.60
2018-02-23T07:31:31.161Z,-1.60
2018-02-23T07:33:58.671Z,-1.60
2018-02-23T07:36:26.201Z,-1.60
2018-02-23T07:38:53.716Z,-1.60
2018-02-23T07:41:21.318Z,-1.50
2018-02-23T07:43:49.619Z,-1.60
2018-02-23T07:46:17.139Z,-1.60
2018-02-23T07:48:45.431Z,-1.70
2018-02-23T07:51:13.736Z,-1.70
2018-02-23T07:53:41.278Z,-1.70
2018-02-23T07:56:08.797Z,-1.70
2018-02-23T07:58:36.331Z,-1.70
2018-02-23T08:01:03.854Z,-1.80
2018-02-23T08:03:31.391Z,-1.70
2018-02-23T08:05:59.679Z,-1.80
2018-02-23T08:08:27.954Z,-1.70
2018-02-23T08:10:56.235Z,-1.60
2018-02-23T08:13:24.508Z,-1.60
2018-02-23T08:15:52.791Z,-1.60
2018-02-23T08:18:21.071Z,-1.40
2018-02-23T08:20:49.351Z,-1.30
2018-02-23T08:23:17.656Z,-1.30
2018-02-23T08:25:45.175Z,-1.30
2018-02-23T08:28:13.480Z,0.10
2018-02-23T08:30:41.005Z,0.10
2018-02-23T08:33:08.598Z,2.10
2018-02-23T08:35:36.114Z,2.00
2018-02-23T08:38:03.641Z,2.30
2018-02-23T08:40:31.159Z,3.90
2018-02-23T08:42:59.450Z,4.60
2018-02-23T08:45:26.964Z,4.60
2018-02-23T08:47:55.287Z,5.10
2018-02-23T08:50:22.870Z,5.10
2018-02-23T08:52:50.402Z,5.00
2018-02-23T08:55:17.972Z,5.00
2018-02-23T08:57:45.484Z,5.70
2018-02-23T09:00:19.663Z,6.50
2018-02-23T09:02:47.166Z,6.80
2018-02-23T09:05:14.774Z,7.40
2018-02-23T09:07:42.288Z,5.10
2018-02-23T09:10:09.851Z,5.00
2018-02-23T09:12:37.369Z,5.20
2018-02-23T09:15:04.910Z,4.60
2018-02-23T09:17:32.428Z,5.20
2018-02-23T09:19:59.936Z,4.20
2018-02-23T09:22:27.445Z,4.20
2018-02-23T09:24:55.027Z,4.80
2018-02-23T09:27:23.316Z,4.40
2018-02-23T09:29:51.697Z,4.50
2018-02-23T09:32:26.631Z,5.00
2018-02-23T09:34:54.185Z,4.90
2018-02-23T09:37:22.484Z,5.30
2018-02-23T09:39:50.044Z,5.30
2018-02-23T09:42:17.596Z,4.60
2018-02-23T09:44:45.162Z,5.20
2018-02-23T09:47:12.660Z,4.70
2018-02-23T09:49:40.162Z,4.10
2018-02-23T09:52:09.172Z,3.20
2018-02-23T09:54:36.683Z,3.20
2018-02-23T09:57:04.188Z,2.10
2018-02-23T09:59:31.698Z,2.60
2018-02-23T10:01:59.305Z,1.70
2018-02-23T10:04:26.866Z,0.90
2018-02-23T10:06:55.152Z,0.60
2018-02-23T10:09:22.711Z,0.50
2018-02-23T10:11:50.268Z,0.60
2018-02-23T10:14:17.836Z,1.10
2018-02-23T10:16:45.358Z,1.00
2018-02-23T10:19:12.950Z,1.80
2018-02-23T10:21:40.509Z,2.40
2018-02-23T10:24:08.011Z,2.00
2018-02-23T10:26:35.632Z,2.90
2018-02-23T10:29:03.191Z,3.80
2018-02-23T10:31:30.783Z,4.30
2018-02-23T10:33:58.316Z,3.70
2018-02-23T10:36:27.730Z,3.70
2018-02-23T10:38:55.267Z,3.60
2018-02-23T10:41:22.815Z,3.60
2018-02-23T10:43:51.104Z,2.80
2018-02-23T10:46:19.968Z,2.70
2018-02-23T10:48:48.263Z,2.30
2018-02-23T10:51:16.567Z,1.90
2018-02-23T10:53:44.077Z,1.90
2018-02-23T10:56:11.601Z,1.80
2018-02-23T10:58:39.106Z,1.80
2018-02-23T11:01:06.629Z,1.80
2018-02-23T11:03:34.148Z,1.60
2018-02-23T11:06:02.423Z,2.30
2018-02-23T11:08:30.703Z,2.30
2018-02-23T11:10:59.004Z,2.30
2018-02-23T11:13:26.526Z,2.30
2018-02-23T11:15:54.119Z,2.00
2018-02-23T11:18:21.679Z,2.10
2018-02-23T11:20:49.255Z,2.40
2018-02-23T11:23:16.779Z,2.10
2018-02-23T11:25:45.126Z,2.60
2018-02-23T11:28:12.665Z,2.60
2018-02-23T11:30:40.171Z,2.60
2018-02-23T11:33:07.759Z,2.30
2018-02-23T11:35:35.267Z,2.30
2018-02-23T11:38:02.883Z,2.00
2018-02-23T11:40:30.444Z,1.90
2018-02-23T11:42:57.995Z,2.10
2018-02-23T11:45:25.506Z,2.50
2018-02-23T11:47:53.021Z,2.20
2018-02-23T11:50:20.538Z,2.20
2018-02-23T11:52:48.134Z,2.30
2018-02-23T11:55:16.410Z,2.50
2018-02-23T11:57:44.685Z,2.40
2018-02-23T12:00:12.967Z,2.30
2018-02-23T12:02:40.471Z,2.20
2018-02-23T12:05:08.091Z,2.50
2018-02-23T12:07:35.653Z,2.50
2018-02-23T12:10:03.947Z,2.20
2018-02-23T12:12:31.525Z,2.20
2018-02-23T12:14:59.095Z,1.80
2018-02-23T12:17:26.600Z,1.40
2018-02-23T12:19:54.887Z,1.60
2018-02-23T12:22:22.453Z,1.60
2018-02-23T12:24:50.036Z,1.80
2018-02-23T12:27:17.552Z,1.60
2018-02-23T12:29:45.850Z,1.70
2018-02-23T12:32:13.405Z,1.70
2018-02-23T12:34:40.932Z,1.50
2018-02-23T12:37:08.464Z,1.60
2018-02-23T12:39:36.086Z,1.40
2018-02-23T12:42:03.590Z,1.60
2018-02-23T12:44:31.219Z,1.50
2018-02-23T12:46:58.775Z,1.40
2018-02-23T12:49:26.328Z,1.30
2018-02-23T12:51:53.906Z,1.50
2018-02-23T12:54:21.531Z,1.70
2018-02-23T12:56:49.822Z,1.50
2018-02-23T12:59:17.404Z,1.40
2018-02-23T13:01:44.914Z,1.20
2018-02-23T13:04:12.533Z,1.30
2018-02-23T13:06:40.061Z,1.40
2018-02-23T13:09:08.369Z,1.30
2018-02-23T13:11:35.880Z,1.20
2018-02-23T13:14:03.404Z,1.30
2018-02-23T13:16:30.906Z,1.30
2018-02-23T13:18:59.216Z,1.20
2018-02-23T13:21:26.783Z,1.20
2018-02-23T13:23:54.339Z,1.20
2018-02-23T13:26:21.851Z,1.20
2018-02-23T13:28:49.443Z,1.40
2018-02-23T13:31:17.822Z,1.30
2018-02-23T13:33:46.215Z,1.40
2018-02-23T13:36:13.731Z,1.30
2018-02-23T13:38:41.341Z,1.40
2018-02-23T13:54:34.263Z,1.20
2018-02-23T13:57:02.551Z,1.50
2018-02-23T13:59:30.082Z,1.50
2018-02-23T14:01:57.702Z,1.70
2018-02-23T14:04:25.232Z,1.70
2018-02-23T14:06:59.123Z,1.40
2018-02-23T14:09:26.654Z,1.40
2018-02-23T14:11:54.275Z,1.30
2018-02-23T14:14:22.572Z,1.40
2018-02-23T14:16:50.126Z,1.40
2018-02-23T14:19:17.646Z,1.40
2018-02-23T14:21:46.072Z,1.20
2018-02-23T14:24:13.646Z,1.20
2018-02-23T14:26:41.158Z,1.00
2018-02-23T14:29:09.582Z,1.20
2018-02-23T14:31:37.124Z,1.20
2018-02-23T14:34:04.660Z,1.20
2018-02-23T14:36:33.995Z,1.40
2018-02-23T14:39:01.541Z,1.30
2018-02-23T14:41:29.076Z,1.30
2018-02-23T14:43:57.355Z,1.40
2018-02-23T14:46:25.661Z,1.30
2018-02-23T14:49:05.298Z,1.30
2018-02-23T14:51:32.862Z,1.20
2018-02-23T14:54:00.419Z,1.30
2018-02-23T14:56:27.950Z,1.30
2018-02-23T14:58:56.321Z,1.20
2018-02-23T15:01:24.952Z,1.10
2018-02-23T15:03:53.257Z,1.10
2018-02-23T15:06:21.711Z,1.10
2018-02-23T15:08:50.782Z,1.10
2018-02-23T15:11:19.842Z,1.20
2018-02-23T15:13:48.134Z,1.20
2018-02-23T15:16:17.470Z,1.20
2018-02-23T15:18:45.706Z,1.20
2018-02-23T15:21:15.142Z,1.20
2018-02-23T15:23:43.580Z,1.20
2018-02-23T15:26:11.823Z,1.20
2018-02-23T15:28:41.134Z,1.20
2018-02-23T15:31:20.567Z,1.20
2018-02-23T15:33:48.113Z,1.20
2018-02-23T15:36:15.660Z,1.10
2018-02-23T15:38:43.261Z,1.00
2018-02-23T15:41:10.793Z,1.00
2018-02-23T15:43:38.343Z,0.90
2018-02-23T15:46:06.778Z,0.90
2018-02-23T15:48:40.150Z,0.90
2018-02-23T16:04:30.656Z,0.60
2018-02-23T16:06:58.214Z,0.60
2018-02-23T16:09:25.739Z,0.50
2018-02-23T16:11:54.096Z,0.30
2018-02-23T16:14:21.634Z,0.30
2018-02-23T16:16:49.181Z,0.30
2018-02-23T16:19:16.707Z,0.20
2018-02-23T16:21:44.268Z,0.10
2018-02-23T16:24:11.777Z,0.00
2018-02-23T16:26:39.379Z,0.10
2018-02-23T16:29:07.683Z,-0.10
2018-02-23T16:31:35.238Z,-0.10
2018-02-23T16:34:02.908Z,-0.20
2018-02-23T16:36:31.358Z,-0.30
2018-02-23T16:38:59.670Z,-0.30
2018-02-23T16:41:27.898Z,-0.30
2018-02-23T16:43:56.188Z,-0.30
2018-02-23T16:46:25.318Z,-0.30
2018-02-23T16:48:54.341Z,-0.40
2018-02-23T16:51:22.651Z,-0.40
2018-02-23T16:53:51.798Z,-0.50
2018-02-23T16:56:19.762Z,-0.50
2018-02-23T16:58:47.335Z,-0.50
2018-02-23T17:01:14.856Z,-0.50
2018-02-23T17:03:43.266Z,-0.60
2018-02-23T17:06:10.794Z,-0.60
2018-02-23T17:08:39.069Z,-0.80
2018-02-23T17:11:07.676Z,-0.80
2018-02-23T17:13:35.623Z,-0.80
2018-02-23T17:16:03.923Z,-0.90
2018-02-23T17:18:31.444Z,-1.00
2018-02-23T17:20:58.984Z,-0.80
2018-02-23T17:23:26.712Z,-0.90
2018-02-23T17:25:54.245Z,-1.00
2018-02-23T17:28:22.510Z,-0.90
2018-02-23T17:30:50.809Z,-1.00
2018-02-23T17:33:18.319Z,-1.00
2018-02-23T17:35:46.052Z,-1.00
2018-02-23T17:38:13.570Z,-1.00
2018-02-23T17:40:41.852Z,-1.10
2018-02-23T17:43:10.131Z,-1.10
2018-02-23T17:45:38.437Z,-1.10
2018-02-23T17:48:05.995Z,-1.20
2018-02-23T17:50:33.556Z,-1.30
2018-02-23T17:53:01.068Z,-1.20
2018-02-23T17:55:28.612Z,-1.30
2018-02-23T17:57:56.253Z,-1.30
2018-02-23T18:00:23.788Z,-1.30
2018-02-23T18:02:52.078Z,-1.40
2018-02-23T18:05:19.641Z,-1.40
2018-02-23T18:07:47.175Z,-1.40
2018-02-23T18:10:15.474Z,-1.50
2018-02-23T18:12:43.037Z,-1.50
2018-02-23T18:15:10.547Z,-1.40
2018-02-23T18:17:38.069Z,-1.50
2018-02-23T18:20:05.574Z,-1.70
2018-02-23T18:22:33.112Z,-1.60
2018-02-23T18:25:00.731Z,-1.60
2018-02-23T18:27:28.260Z,-1.60
2018-02-23T18:29:56.585Z,-1.50
2018-02-23T18:32:24.135Z,-1.50
2018-02-23T18:34:51.701Z,-1.50
2018-02-23T18:37:19.253Z,-1.60
2018-02-23T18:39:46.763Z,-1.60
2018-02-23T18:42:14.372Z,-1.70
2018-02-23T18:44:41.940Z,-1.70
2018-02-23T18:47:09.486Z,-1.70
2018-02-23T18:49:37.786Z,-1.70
2018-02-23T18:52:05.322Z,-1.70
2018-02-23T18:54:32.891Z,-1.60
2018-02-23T18:57:00.458Z,-1.70
2018-02-23T18:59:28.110Z,-1.70
2018-02-23T19:01:55.684Z,-1.80
2018-02-23T19:04:23.210Z,-1.80
2018-02-23T19:06:51.488Z,-1.80
2018-02-23T19:09:19.785Z,-1.90
2018-02-23T19:11:47.467Z,-1.90
2018-02-23T19:14:15.013Z,-2.00
2018-02-23T19:16:42.527Z,-2.00
2018-02-23T19:19:10.051Z,-1.90
2018-02-23T19:21:37.561Z,-2.00
2018-02-23T19:24:05.160Z,-2.00
2018-02-23T19:26:32.676Z,-2.00
2018-02-23T19:29:00.269Z,-2.00
2018-02-23T19:31:27.789Z,-2.00
2018-02-23T19:33:55.401Z,-2.10
2018-02-23T19:36:22.915Z,-2.10
2018-02-23T19:38:50.433Z,-2.20
2018-02-23T19:41:18.145Z,-2.20
2018-02-23T19:43:46.430Z,-2.20
2018-02-23T19:46:14.763Z,-2.30
2018-02-23T19:48:42.309Z,-2.30
2018-02-23T19:51:09.848Z,-2.30
2018-02-23T19:53:38.135Z,-2.40
2018-02-23T19:56:05.656Z,-2.40
2018-02-23T19:58:33.245Z,-2.40
2018-02-23T20:01:01.560Z,-2.60
2018-02-23T20:03:29.114Z,-2.60
2018-02-23T20:05:56.646Z,-2.60
2018-02-23T20:08:24.241Z,-2.60
2018-02-23T20:10:51.787Z,-2.70
2018-02-23T20:13:19.324Z,-2.70
2018-02-23T20:15:47.615Z,-2.70
2018-02-23T20:18:15.187Z,-2.70
2018-02-23T20:20:42.754Z,-2.70
2018-02-23T20:23:10.300Z,-2.70
2018-02-23T20:25:37.816Z,-2.80
2018-02-23T20:28:06.100Z,-2.90
2018-02-23T20:30:33.696Z,-2.90
2018-02-23T20:33:01.255Z,-2.90
2018-02-23T20:35:28.811Z,-2.90
2018-02-23T20:37:56.387Z,-3.00
2018-02-23T20:40:23.922Z,-2.90
2018-02-23T20:42:52.227Z,-2.90
2018-02-23T20:45:19.734Z,-2.90
2018-02-23T20:47:47.335Z,-3.00
2018-02-23T20:50:14.891Z,-3.00
2018-02-23T20:52:42.451Z,-3.00
2018-02-23T20:55:09.965Z,-3.00
2018-02-23T20:57:37.604Z,-3.00
2018-02-23T21:00:05.166Z,-3.10
2018-02-23T21:02:32.683Z,-3.00
2018-02-23T21:05:00.209Z,-3.00
2018-02-23T21:07:27.748Z,-3.00
2018-02-23T21:09:55.388Z,-3.00
2018-02-23T21:12:22.919Z,-3.00
2018-02-23T21:14:51.343Z,-3.00
2018-02-23T21:17:18.870Z,-3.10
2018-02-23T21:19:47.204Z,-3.20
2018-02-23T21:22:14.735Z,-3.20
2018-02-23T21:24:42.299Z,-3.30
2018-02-23T21:27:09.823Z,-3.20
2018-02-23T21:29:38.136Z,-3.10
2018-02-23T21:32:05.688Z,-3.20
2018-02-23T21:34:33.361Z,-3.10
2018-02-23T21:37:02.442Z,-3.20
2018-02-23T21:39:29.964Z,-3.20
2018-02-23T21:41:57.500Z,-3.20
2018-02-23T21:44:25.130Z,-3.20
2018-02-23T21:46:52.663Z,-3.20
2018-02-23T21:49:20.955Z,-3.20
2018-02-23T21:51:48.485Z,-3.20
2018-02-23T21:54:16.788Z,-3.20
2018-02-23T21:56:44.302Z,-3.30
2018-02-23T21:59:11.802Z,-3.30
2018-02-23T22:01:40.083Z,-3.30
2018-02-23T22:04:07.658Z,-3.30
2018-02-23T22:06:36.231Z,-3.40
2018-02-23T22:09:03.804Z,-3.40
2018-02-23T22:11:31.330Z,-3.30
2018-02-23T22:13:59.643Z,-3.50
2018-02-23T22:16:27.183Z,-3.50
2018-02-23T22:18:55.464Z,-3.40
2018-02-23T22:21:23.035Z,-3.40
2018-02-23T22:23:50.611Z,-3.50
2018-02-23T22:26:18.162Z,-3.50
2018-02-23T22:28:45.680Z,-3.50
2018-02-23T22:31:14.106Z,-3.40
2018-02-23T22:33:41.628Z,-3.40
2018-02-23T22:36:09.914Z,-3.40
2018-02-23T22:38:38.206Z,-3.40
2018-02-23T22:41:05.775Z,-3.40
2018-02-23T22:43:33.289Z,-3.50
2018-02-23T22:46:01.582Z,-3.40
2018-02-23T22:48:29.883Z,-3.50
2018-02-23T22:50:58.170Z,-3.50
2018-02-23T22:53:25.803Z,-3.50
2018-02-23T22:55:54.084Z,-3.50
2018-02-23T22:58:22.553Z,-3.50
2018-02-23T23:00:50.869Z,-3.50
2018-02-23T23:03:18.527Z,-3.60
2018-02-23T23:05:46.089Z,-3.50
2018-02-23T23:08:13.653Z,-3.60
2018-02-23T23:10:41.176Z,-3.60
2018-02-23T23:13:09.712Z,-3.60
2018-02-23T23:15:37.243Z,-3.60
2018-02-23T23:18:04.820Z,-3.60
2018-02-23T23:20:32.338Z,-3.60
2018-02-23T23:23:00.648Z,-3.70
2018-02-23T23:25:28.209Z,-3.70
2018-02-23T23:27:55.874Z,-3.70
2018-02-23T23:30:23.426Z,-3.70
2018-02-23T23:32:50.995Z,-3.70
2018-02-23T23:35:18.566Z,-3.70
2018-02-23T23:37:46.116Z,-3.70
2018-02-23T23:40:13.634Z,-3.80
2018-02-23T23:42:41.163Z,-3.70
2018-02-23T23:45:08.702Z,-3.80
2018-02-23T23:47:36.215Z,-3.80
2018-02-23T23:50:03.744Z,-3.80
2018-02-23T23:52:31.382Z,-3.80
2018-02-23T23:54:58.928Z,-3.80
2018-02-23T23:57:26.455Z,-3.80
2018-02-23T23:59:54.075Z,-3.80
